Latest Weather Observations for Parafield

IDS60901

Issued at 2:41 pm CST Saturday 30 July 2016 (issued every 10 minutes, with the page automatically refreshed every 10 minutes)

About weather observations | Map of Adelaide area stations | Latest observations for Adelaide area | Other Formats
Station Details ID: 023013 Name: PARAFIELD AIRPORT Lat: -34.80 Lon: 138.63 Height: 9.5 m
Data from the previous 72 hours. | See also: Recent months at Parafield
Date/Time
CST
Temp
°C
App
Temp
°C
Dew
Point
°C
Rel
Hum
%
Delta-T
°C
Wind Press
QNH
hPa
Press
MSL
hPa
Rain since
9am
mm
Dir  Spd
km/h
Gust
km/h
Spd
kts
Gust
kts
30/02:30pm 15.9 11.4 8.4 61 3.8 N 22 32 12 17 1013.5 1013.5 0.0
30/02:00pm 15.4 10.4 8.2 62 3.6 N 24 41 13 22 1014.2 1014.3 0.0
30/01:30pm 15.6 9.8 7.9 60 3.9 N 28 43 15 23 1014.9 1015.0 0.0
30/01:19pm 15.5 9.6 7.3 58 4.1 N 28 46 15 25 1015.1 1015.2 0.0
30/01:00pm 15.5 9.2 7.3 58 4.1 N 30 43 16 23 1015.3 1015.4 0.0
30/12:40pm 16.0 9.3 7.2 56 4.4 N 32 50 17 27 1015.4 1015.5 0.0
30/12:30pm 16.0 9.6 7.0 55 4.4 N 30 43 16 23 1015.8 1015.9 0.0
30/12:00pm 15.6 9.5 6.6 55 4.4 N 28 41 15 22 1016.5 1016.6 0.0
30/11:30am 15.6 8.7 7.1 57 4.2 N 33 46 18 25 1017.1 1017.2 0.0
30/11:00am 14.9 8.9 7.2 60 3.8 N 28 37 15 20 1017.4 1017.5 0.0
30/10:30am 14.8 8.9 7.4 61 3.6 N 28 37 15 20 1017.9 1018.0 0.0
30/10:00am 14.1 8.8 6.7 61 3.6 N 24 33 13 18 1018.2 1018.3 0.0
30/09:30am 13.5 7.4 6.4 62 3.4 N 28 43 15 23 1018.2 1018.3 0.0
30/09:00am 13.0 8.4 6.4 64 3.1 N 20 28 11 15 1018.3 1018.4 0.0
30/08:30am 12.3 7.2 6.1 66 2.9 NNE 22 28 12 15 1018.5 1018.6 0.0
30/08:00am 11.9 7.2 6.0 67 2.8 N 20 26 11 14 1018.4 1018.5 0.0
30/07:30am 10.9 6.2 5.9 71 2.3 NNE 20 28 11 15 1018.6 1018.7 0.0
30/07:00am 11.0 6.3 6.0 71 2.3 NNE 20 24 11 13 1018.6 1018.7 0.0
30/06:30am 11.3 6.8 6.2 71 2.4 NNE 19 24 10 13 1018.8 1018.9 0.0
30/06:00am 11.4 7.0 6.5 72 2.3 NNE 19 24 10 13 1018.9 1019.0 0.0
30/05:30am 11.2 7.6 6.7 74 2.1 NNE 15 19 8 10 1018.9 1019.0 0.0
30/05:00am 11.0 7.4 6.7 75 2.0 NNE 15 20 8 11 1019.1 1019.2 0.0
30/04:30am 11.4 7.8 6.9 74 2.1 NNE 15 20 8 11 1019.1 1019.2 0.0
30/04:00am 11.1 7.6 7.0 76 2.0 NNE 15 20 8 11 1019.5 1019.6 0.0
30/03:30am 11.5 7.6 7.2 75 2.1 NNE 17 22 9 12 1019.6 1019.7 0.0
30/03:00am 9.7 6.6 7.1 84 1.2 NE 13 15 7 8 1020.0 1020.1 0.0
30/02:30am 9.9 6.4 7.3 84 1.2 NE 15 17 8 9 1020.3 1020.4 0.0
30/02:00am 9.7 6.2 7.3 85 1.1 NE 15 15 8 8 1020.6 1020.7 0.0
30/01:30am 9.2 6.1 7.2 87 0.9 NE 13 17 7 9 1020.9 1021.0 0.0
30/01:00am 8.0 5.0 6.1 88 0.9 NE 11 13 6 7 1021.3 1021.4 0.0
30/12:30am 8.8 5.3 7.3 90 0.7 NE 15 15 8 8 1021.4 1021.5 0.0
30/12:00am 8.4 5.2 6.9 90 0.7 NE 13 15 7 8 1022.0 1022.0 0.0
 
Date/Time
CST
Temp
°C
App
Temp
°C
Dew
Point
°C
Rel
Hum
%
Delta-T
°C
Wind Press
QNH
hPa
Press
MSL
hPa
Rain since
9am
mm
Dir  Spd
km/h
Gust
km/h
Spd
kts
Gust
kts
29/11:30pm 9.5 6.8 7.3 86 1.0 NNE 11 13 6 7 1022.4 1022.4 0.0
29/11:00pm 11.2 8.5 8.9 86 1.1 NNE 13 15 7 8 1022.5 1022.5 0.0
29/10:30pm 10.4 8.0 8.7 89 0.8 NNE 11 13 6 7 1022.5 1022.5 0.0
29/10:00pm 10.0 7.7 8.9 93 0.5 NE 11 13 6 7 1022.6 1022.6 0.0
29/09:30pm 9.1 7.3 7.9 92 0.6 NE 7 9 4 5 1023.0 1023.0 0.0
29/09:00pm 9.6 7.4 7.9 89 0.8 NE 9 11 5 6 1022.9 1022.9 0.0
29/08:30pm 10.8 9.2 8.9 88 0.9 NNE 7 9 4 5 1022.8 1022.8 0.0
29/08:00pm 10.3 8.4 9.1 92 0.6 NE 9 11 5 6 1022.8 1022.8 0.0
29/07:30pm 10.0 8.3 8.4 90 0.8 NE 7 11 4 6 1022.7 1022.7 0.0
29/07:00pm 10.4 8.8 8.7 89 0.8 NE 7 9 4 5 1022.6 1022.6 0.0
29/06:30pm 10.4 8.3 8.3 87 1.0 NE 9 9 5 5 1022.4 1022.4 0.0
29/06:00pm 11.9 10.4 9.1 83 1.4 NE 7 9 4 5 1022.2 1022.2 0.0
29/05:30pm 12.9 11.5 9.4 79 1.8 NNE 7 7 4 4 1022.3 1022.3 0.0
29/05:00pm 14.9 14.8 9.3 69 2.9 CALM 0 0 0 0 1022.3 1022.3 0.0
29/04:30pm 15.7 15.6 9.6 67 3.2 CALM 0 0 0 0 1022.5 1022.5 0.0
29/04:00pm 15.2 13.9 9.8 70 2.8 WNW 7 11 4 6 1022.7 1022.7 0.0
29/03:30pm 14.9 12.9 8.8 67 3.1 NW 9 13 5 7 1022.8 1022.8 0.0
29/03:00pm 14.4 12.1 9.0 70 2.7 WNW 11 15 6 8 1023.2 1023.2 0.0
29/02:30pm 14.6 11.2 9.0 69 2.8 WNW 17 20 9 11 1023.3 1023.3 0.0
29/02:00pm 14.5 11.1 9.1 70 2.8 NW 17 20 9 11 1023.5 1023.5 0.0
29/01:30pm 14.7 11.8 9.7 72 2.6 NW 15 20 8 11 1024.0 1024.0 0.0
29/01:00pm 14.1 10.6 8.9 71 2.6 WNW 17 22 9 12 1024.6 1024.6 0.0
29/12:30pm 13.7 11.3 8.7 72 2.5 NW 11 15 6 8 1024.6 1024.6 0.0
29/12:00pm 13.7 10.9 8.7 72 2.5 NW 13 19 7 10 1025.0 1025.0 0.0
29/11:30am 13.4 11.2 8.0 70 2.7 NNW 9 17 5 9 1025.4 1025.4 0.0
29/11:00am 12.7 10.5 8.0 73 2.3 NNW 9 13 5 7 1025.5 1025.5 0.0
29/10:30am 12.1 9.6 8.0 76 2.0 N 11 13 6 7 1025.9 1025.9 0.0
29/10:00am 11.4 9.2 7.9 79 1.7 N 9 13 5 7 1026.1 1026.1 0.0
29/09:30am 10.8 8.6 7.7 81 1.5 N 9 11 5 6 1026.2 1026.2 0.0
29/09:00am 10.4 9.9 7.8 84 1.2 CALM 0 0 0 0 1026.2 1026.2 0.0
29/08:30am 10.0 9.4 7.3 83 1.3 CALM 0 0 0 0 1025.9 1025.9 0.0
29/08:00am 9.8 9.4 8.1 89 0.8 CALM 0 4 0 2 1025.9 1025.9 0.0
29/07:30am 8.8 6.4 7.1 89 0.8 N 9 13 5 7 1025.7 1025.7 0.0
29/07:00am 9.2 6.5 7.5 89 0.8 N 11 15 6 8 1025.8 1025.8 0.0
29/06:30am 9.4 6.4 7.8 90 0.8 N 13 19 7 10 1025.2 1025.2 0.0
29/06:00am 9.3 6.5 8.5 95 0.4 N 13 17 7 9 1025.0 1025.0 0.0
29/05:30am 9.3 7.7 8.7 96 0.3 N 7 11 4 6 1025.3 1025.3 0.0
29/05:00am 9.3 7.7 8.8 97 0.2 N 7 9 4 5 1025.2 1025.2 0.0
29/04:30am 9.5 8.0 9.0 97 0.2 N 7 9 4 5 1025.3 1025.3 0.0
29/04:00am 9.6 7.8 9.6 100 0.0 N 9 13 5 7 1025.4 1025.4 0.0
29/03:36am 9.6 7.8 9.6 100 0.0 N 9 9 5 5 1025.5 1025.5 0.0
29/03:30am 9.5 8.1 9.5 100 0.0 N 7 9 4 5 1025.5 1025.5 0.0
29/03:00am 9.6 8.8 9.6 100 0.0 NNE 4 7 2 4 1025.6 1025.6 0.0
29/02:30am 9.5 7.7 9.5 100 0.0 NE 9 9 5 5 1025.5 1025.5 0.0
29/02:00am 9.2 7.3 9.2 100 0.0 NE 9 11 5 6 1025.8 1025.8 0.0
29/01:47am 8.4 6.3 8.4 100 0.0 NE 9 11 5 6 1026.1 1026.1 0.0
29/01:30am 7.9 5.7 7.9 100 0.0 NE 9 9 5 5 1026.0 1026.0 0.0
29/01:24am 8.0 5.8 8.0 100 0.0 NNE 9 9 5 5 1026.1 1026.1 0.0
29/01:11am 8.7 6.7 8.7 100 0.0 N 9 11 5 6 1026.2 1026.2 0.0
29/01:10am 8.7 6.7 8.7 100 0.0 N 9 11 5 6 1026.2 1026.2 0.0
29/01:00am 9.0 7.5 9.0 100 0.0 N 7 9 4 5 1026.3 1026.3 0.0
29/12:31am 9.9 7.8 9.9 100 0.0 NNW 11 15 6 8 1026.7 1026.7 0.0
29/12:30am 9.8 7.7 9.8 100 0.0 NNW 11 15 6 8 1026.7 1026.7 0.0
29/12:11am 9.9 7.5 9.9 100 0.0 NNW 13 17 7 9 1026.8 1026.8 0.0
29/12:08am 9.9 7.5 9.9 100 0.0 NNW 13 15 7 8 1026.9 1026.9 0.0
29/12:00am 9.9 7.5 9.9 100 0.0 NNW 13 15 7 8 1027.0 1027.0 0.0
 
Date/Time
CST
Temp
°C
App
Temp
°C
Dew
Point
°C
Rel
Hum
%
Delta-T
°C
Wind Press
QNH
hPa
Press
MSL
hPa
Rain since
9am
mm
Dir  Spd
km/h
Gust
km/h
Spd
kts
Gust
kts
28/11:46pm 10.1 7.7 10.1 100 0.0 NW 13 17 7 9 1027.1 1027.1 0.0
28/11:41pm 10.1 7.7 10.0 99 0.1 NW 13 17 7 9 1027.0 1027.0 0.0
28/11:30pm 10.2 7.7 9.6 96 0.3 NW 13 17 7 9 1026.9 1026.9 0.0
28/11:00pm 10.1 8.2 9.0 93 0.5 NNW 9 15 5 8 1026.8 1026.8 0.0
28/10:30pm 10.3 7.7 9.2 93 0.5 N 13 15 7 8 1026.7 1026.7 0.0
28/10:00pm 10.5 8.3 9.3 92 0.6 N 11 15 6 8 1027.0 1027.0 0.0
28/09:30pm 10.6 8.7 8.9 89 0.8 NNW 9 11 5 6 1027.1 1027.1 0.0
28/09:00pm 10.8 8.8 8.7 87 1.0 NW 9 13 5 7 1027.4 1027.4 0.0
28/08:30pm 11.4 8.6 8.6 83 1.4 WNW 13 15 7 8 1027.5 1027.5 0.0
28/08:00pm 11.4 8.7 8.8 84 1.3 WNW 13 17 7 9 1027.6 1027.6 0.0
28/07:30pm 11.6 8.6 9.3 86 1.1 WNW 15 20 8 11 1027.7 1027.7 0.0
28/07:00pm 11.9 8.6 9.5 85 1.2 WNW 17 22 9 12 1027.5 1027.5 0.0
28/06:30pm 11.8 9.2 9.4 85 1.2 NW 13 17 7 9 1027.6 1027.6 0.0
28/06:00pm 11.5 9.7 9.6 88 1.0 NNW 9 13 5 7 1027.4 1027.4 0.0
28/05:30pm 11.4 8.3 9.0 85 1.2 NW 15 19 8 10 1027.3 1027.3 0.0
28/05:00pm 12.1 9.4 9.1 82 1.5 WNW 13 22 7 12 1027.2 1027.2 0.0
28/04:30pm 12.7 9.0 9.3 80 1.7 NW 19 24 10 13 1027.1 1027.1 0.0
28/04:00pm 12.8 9.3 8.7 76 2.0 WNW 17 22 9 12 1027.3 1027.3 0.0
28/03:30pm 13.2 10.2 9.3 77 2.0 NW 15 20 8 11 1027.4 1027.4 0.0
28/03:00pm 13.8 10.4 9.3 74 2.3 WNW 17 20 9 11 1027.5 1027.5 0.0
28/02:30pm 13.3 9.3 8.2 71 2.5 WNW 19 24 10 13 1027.4 1027.4 0.0
28/02:00pm 13.2 9.3 9.3 77 2.0 NW 20 26 11 14 1027.5 1027.5 0.0
28/01:30pm 13.7 10.4 9.4 75 2.2 WNW 17 22 9 12 1027.8 1027.8 0.0
28/01:00pm 13.8 10.9 9.5 75 2.2 WNW 15 19 8 10 1028.0 1028.0 0.0
28/12:44pm 14.0 11.0 9.4 74 2.4 WNW 15 19 8 10 1028.1 1028.1 0.0
28/12:30pm 13.2 9.9 9.5 78 1.9 NW 17 22 9 12 1028.2 1028.2 0.0
28/12:23pm 13.3 10.1 9.9 80 1.7 NW 17 22 9 12 1028.3 1028.3 0.0
28/12:00pm 13.4 10.8 10.6 83 1.5 WNW 15 22 8 12 1028.7 1028.7 0.0
28/11:30am 13.1 10.0 10.3 83 1.4 WNW 17 22 9 12 1029.3 1029.3 0.0
28/11:00am 13.5 10.3 11.2 86 1.2 NW 19 22 10 12 1029.6 1029.6 0.0
28/10:30am 12.5 9.7 10.0 85 1.3 WNW 15 22 8 12 1029.6 1029.6 0.0
28/10:29am 12.6 9.8 10.1 85 1.3 WNW 15 19 8 10 1029.6 1029.6 0.0
28/10:00am 12.2 9.3 11.1 93 0.6 NW 17 24 9 13 1029.6 1029.6 0.0
28/09:56am 11.7 8.7 10.6 93 0.6 NW 17 24 9 13 1029.5 1029.5 0.0
28/09:44am 11.7 8.6 10.4 92 0.7 WNW 17 24 9 13 1029.6 1029.6 0.0
28/09:34am 12.2 10.0 10.8 91 0.7 WNW 13 17 7 9 1029.6 1029.6 0.0
28/09:30am 12.0 9.8 10.7 92 0.7 WNW 13 15 7 8 1029.6 1029.6 0.0
28/09:11am 11.3 9.5 11.0 98 0.2 WNW 11 15 6 8 1029.6 1029.6 0.0
28/09:00am 11.3 8.9 11.3 100 0.0 WNW 15 20 8 11 1029.5 1029.5 0.4
28/08:41am 11.2 10.3 11.2 100 0.0 W 7 9 4 5 1029.5 1029.5 0.2
28/08:30am 10.9 9.5 10.9 100 0.0 WSW 9 11 5 6 1029.4 1029.4 0.2
28/08:20am 10.9 9.1 10.9 100 0.0 WNW 11 15 6 8 1029.3 1029.3 0.2
28/08:18am 11.0 9.2 11.0 100 0.0 WNW 11 15 6 8 1029.3 1029.3 0.0
28/08:00am 10.2 9.2 10.2 100 0.0 N 6 13 3 7 1029.1 1029.1 0.0
28/07:30am 9.8 8.5 9.8 100 0.0 NW 7 9 4 5 1028.7 1028.7 0.0
28/07:00am 10.0 8.3 9.7 98 0.2 NW 9 13 5 7 1028.4 1028.4 0.0
28/06:47am 10.4 8.3 9.9 97 0.3 NW 11 15 6 8 1028.3 1028.3 0.0
28/06:30am 10.6 8.5 9.8 95 0.4 WNW 11 13 6 7 1028.3 1028.3 0.0
28/06:00am 10.2 8.2 8.8 91 0.7 WNW 9 11 5 6 1028.0 1028.0 0.0
28/05:30am 9.8 7.7 8.4 91 0.7 NW 9 13 5 7 1027.8 1027.8 0.0
28/05:00am 10.7 8.0 8.8 88 0.9 WNW 13 19 7 10 1027.6 1027.6 0.0
28/04:30am 11.2 8.6 7.9 80 1.6 WNW 11 15 6 8 1027.5 1027.5 0.0
28/04:00am 11.4 7.7 8.1 80 1.6 WNW 17 22 9 12 1027.6 1027.6 0.0
28/03:30am 11.4 8.4 7.7 78 1.8 WNW 13 20 7 11 1027.6 1027.6 0.0
28/03:00am 11.6 8.4 8.6 82 1.5 W 15 20 8 11 1027.7 1027.7 0.0
28/02:30am 11.4 8.9 8.1 80 1.6 W 11 17 6 9 1027.7 1027.7 0.0
28/02:00am 11.4 8.9 8.1 80 1.6 WNW 11 15 6 8 1027.9 1027.9 0.0
28/01:30am 11.1 9.0 8.3 83 1.4 W 9 13 5 7 1027.8 1027.8 0.0
28/01:00am 11.5 8.6 8.2 80 1.6 WNW 13 15 7 8 1027.5 1027.5 0.0
28/12:30am 11.6 8.7 8.1 79 1.7 WNW 13 17 7 9 1027.4 1027.4 0.0
28/12:00am 11.5 8.5 7.6 77 1.9 NW 13 17 7 9 1027.2 1027.2 0.0
 
Date/Time
CST
Temp
°C
App
Temp
°C
Dew
Point
°C
Rel
Hum
%
Delta-T
°C
Wind Press
QNH
hPa
Press
MSL
hPa
Rain since
9am
mm
Dir  Spd
km/h
Gust
km/h
Spd
kts
Gust
kts
27/11:30pm 11.7 8.4 8.2 79 1.7 WNW 15 19 8 10 1027.5 1027.5 0.0
27/11:00pm 11.6 8.3 7.9 78 1.8 WNW 15 20 8 11 1027.5 1027.5 0.0
27/10:30pm 11.6 8.6 7.9 78 1.8 W 13 17 7 9 1027.6 1027.6 0.0
27/10:00pm 11.6 8.7 8.1 79 1.7 WNW 13 17 7 9 1027.6 1027.6 0.0
27/09:30pm 11.5 8.5 7.8 78 1.8 WNW 13 19 7 10 1027.7 1027.7 0.0
27/09:00pm 11.6 8.4 8.3 80 1.6 WNW 15 19 8 10 1027.6 1027.6 0.0
27/08:30pm 11.7 8.5 8.4 80 1.6 WNW 15 19 8 10 1027.7 1027.7 0.0
27/08:00pm 11.5 8.6 8.0 79 1.7 WNW 13 17 7 9 1027.6 1027.6 0.0
27/07:30pm 11.5 8.6 8.2 80 1.6 WNW 13 17 7 9 1027.4 1027.4 0.0
27/07:00pm 11.7 8.6 7.4 75 2.1 WNW 13 20 7 11 1027.1 1027.1 0.0
27/06:30pm 11.3 8.1 7.0 75 2.0 W 13 15 7 8 1026.8 1026.8 0.0
27/06:00pm 11.5 8.3 6.8 73 2.2 WSW 13 17 7 9 1026.5 1026.5 0.0
27/05:30pm 11.2 8.8 7.1 76 1.9 W 9 11 5 6 1026.2 1026.2 0.0
27/05:00pm 11.8 8.6 6.9 72 2.3 WSW 13 17 7 9 1025.9 1025.9 0.0
27/04:30pm 12.6 8.6 6.6 67 2.8 WSW 17 20 9 11 1025.8 1025.8 0.0
27/04:00pm 12.6 8.1 6.2 65 3.0 SW 19 26 10 14 1025.5 1025.5 0.0
27/03:30pm 12.9 8.6 6.9 67 2.9 SW 19 24 10 13 1025.3 1025.3 0.0
27/03:00pm 12.9 9.0 7.1 68 2.8 WSW 17 24 9 13 1025.2 1025.2 0.0

Latest Capital City Observations: Canberra | Sydney | Melbourne | Brisbane | Adelaide | Perth | Hobart | Darwin

Other Formats:

Comma delimited format used in spreadsheet applications
http://www.bom.gov.au/fwo/IDS60901/IDS60901.95677.axf

JavaScript Object Notation format (JSON) in row-major order
http://www.bom.gov.au/fwo/IDS60901/IDS60901.95677.json